createdAt,value
2022-09-12T00:01:20.516Z,19.10
2022-09-12T00:03:49.033Z,19.10
2022-09-12T00:06:23.143Z,19.10
2022-09-12T00:08:51.806Z,19.10
2022-09-12T00:11:20.096Z,19.10
2022-09-12T00:13:48.927Z,19.00
2022-09-12T00:16:18.999Z,19.10
2022-09-12T00:18:47.726Z,19.00
2022-09-12T00:21:18.886Z,19.00
2022-09-12T00:23:47.344Z,19.00
2022-09-12T00:26:17.164Z,19.00
2022-09-12T00:28:46.019Z,19.00
2022-09-12T00:31:16.900Z,19.00
2022-09-12T00:33:45.929Z,19.00
2022-09-12T00:36:16.899Z,19.00
2022-09-12T00:38:47.659Z,18.90
2022-09-12T00:41:18.438Z,18.90
2022-09-12T00:43:48.472Z,18.90
2022-09-12T00:46:35.948Z,18.90
2022-09-12T00:49:08.883Z,18.90
2022-09-12T00:51:38.750Z,18.90
2022-09-12T00:54:14.900Z,18.90
2022-09-12T00:56:46.117Z,18.90
2022-09-12T00:59:17.782Z,18.80
2022-09-12T01:01:48.810Z,18.80
2022-09-12T01:04:18.709Z,18.80
2022-09-12T01:06:49.647Z,19.10
2022-09-12T01:09:22.844Z,18.80
2022-09-12T01:11:52.311Z,18.80
2022-09-12T01:14:21.601Z,18.80
2022-09-12T01:16:51.515Z,18.80
2022-09-12T01:19:42.979Z,18.80
2022-09-12T01:22:24.854Z,18.70
2022-09-12T01:25:05.868Z,18.80
2022-09-12T01:27:42.790Z,18.80
2022-09-12T01:30:32.323Z,18.80
2022-09-12T01:33:26.426Z,18.70
2022-09-12T01:36:07.292Z,18.70
2022-09-12T01:38:47.307Z,18.70
2022-09-12T01:41:23.701Z,18.70
2022-09-12T01:43:58.446Z,18.70
2022-09-12T01:46:33.856Z,18.70
2022-09-12T01:49:06.926Z,18.70
2022-09-12T01:51:39.903Z,18.70
2022-09-12T01:54:12.003Z,18.70
2022-09-12T01:56:44.005Z,18.60
2022-09-12T01:59:16.080Z,18.70
2022-09-12T02:01:52.919Z,18.70
2022-09-12T02:04:24.146Z,18.70
2022-09-12T02:06:59.024Z,18.70
2022-09-12T02:09:32.501Z,18.60
2022-09-12T02:12:02.413Z,18.60
2022-09-12T02:14:33.417Z,18.60
2022-09-12T02:17:09.919Z,18.60
2022-09-12T02:19:44.108Z,18.60
2022-09-12T02:22:18.165Z,18.60
2022-09-12T02:24:49.291Z,18.60
2022-09-12T02:27:22.759Z,18.60
2022-09-12T02:29:51.390Z,18.50
2022-09-12T02:32:30.345Z,18.60
2022-09-12T02:35:07.040Z,18.60
2022-09-12T02:37:47.080Z,18.50
2022-09-12T02:40:15.881Z,18.50
2022-09-12T02:42:44.268Z,18.50
2022-09-12T02:45:14.308Z,18.50
2022-09-12T02:47:49.867Z,18.50
2022-09-12T02:50:18.425Z,18.50
2022-09-12T02:52:47.453Z,18.50
2022-09-12T02:55:16.633Z,18.50
2022-09-12T02:57:44.770Z,18.50
2022-09-12T03:00:14.866Z,18.50
2022-09-12T03:03:20.748Z,18.40
2022-09-12T03:05:55.749Z,18.50
2022-09-12T03:08:58.175Z,18.40
2022-09-12T03:11:48.789Z,18.40
2022-09-12T03:14:29.749Z,18.40
2022-09-12T03:17:06.255Z,18.40
2022-09-12T03:19:50.374Z,18.40
2022-09-12T03:22:29.753Z,18.40
2022-09-12T03:25:06.786Z,18.30
2022-09-12T03:27:37.524Z,18.30
2022-09-12T03:30:06.928Z,18.30
2022-09-12T03:32:42.663Z,18.30
2022-09-12T03:35:13.913Z,18.30
2022-09-12T03:41:43.830Z,18.30
2022-09-12T03:44:12.069Z,18.30
2022-09-12T03:46:40.117Z,18.30
2022-09-12T03:49:08.248Z,18.30
2022-09-12T03:51:37.950Z,18.30
2022-09-12T03:54:06.560Z,18.30
2022-09-12T03:56:35.798Z,18.30
2022-09-12T03:59:06.684Z,18.30
2022-09-12T04:01:35.293Z,18.30
2022-09-12T04:04:03.913Z,18.30
2022-09-12T04:06:32.215Z,18.30
2022-09-12T04:09:01.705Z,18.30
2022-09-12T04:11:30.051Z,18.30
2022-09-12T04:13:58.448Z,18.20
2022-09-12T04:16:26.956Z,18.30
2022-09-12T04:18:56.169Z,18.20
2022-09-12T04:21:24.346Z,18.30
2022-09-12T04:23:53.116Z,18.30
2022-09-12T04:26:22.859Z,18.30
2022-09-12T04:28:57.761Z,18.30
2022-09-12T04:31:27.180Z,18.30
2022-09-12T04:33:56.364Z,18.30
2022-09-12T04:36:25.007Z,18.30
2022-09-12T04:38:53.682Z,18.30
2022-09-12T04:41:25.333Z,18.30
2022-09-12T04:43:55.210Z,18.30
2022-09-12T04:46:23.495Z,18.40
2022-09-12T04:48:56.049Z,18.30
2022-09-12T04:51:27.694Z,18.40
2022-09-12T04:53:57.849Z,18.40
2022-09-12T04:56:28.352Z,18.40
2022-09-12T04:58:59.311Z,18.40
2022-09-12T05:01:28.751Z,18.40
2022-09-12T05:03:58.789Z,18.40
2022-09-12T05:06:28.845Z,18.40
2022-09-12T05:08:58.726Z,18.60
2022-09-12T05:11:59.781Z,18.40
2022-09-12T05:14:18.872Z,18.40
2022-09-12T05:16:49.615Z,18.40
2022-09-12T05:19:18.674Z,18.40
2022-09-12T05:21:47.279Z,18.40
2022-09-12T05:24:15.794Z,18.40
2022-09-12T05:26:47.500Z,18.40
2022-09-12T05:29:16.055Z,18.40
2022-09-12T05:31:44.625Z,18.40
2022-09-12T05:34:13.113Z,18.40
2022-09-12T05:36:42.333Z,18.40
2022-09-12T05:39:11.100Z,18.40
2022-09-12T05:41:39.730Z,18.40
2022-09-12T05:44:14.691Z,18.40
2022-09-12T05:46:46.717Z,18.50
2022-09-12T05:49:15.731Z,18.40
2022-09-12T05:51:46.016Z,18.50
2022-09-12T05:54:16.279Z,18.50
2022-09-12T05:56:45.776Z,18.40
2022-09-12T05:59:17.481Z,18.50
2022-09-12T06:01:46.495Z,18.50
2022-09-12T06:04:15.179Z,18.50
2022-09-12T06:06:46.129Z,18.50
2022-09-12T06:09:17.158Z,18.50
2022-09-12T06:11:47.106Z,18.50
2022-09-12T06:14:19.590Z,18.50
2022-09-12T06:16:48.807Z,18.50
2022-09-12T06:19:19.516Z,18.50
2022-09-12T06:21:49.694Z,18.50
2022-09-12T06:24:18.771Z,18.50
2022-09-12T06:26:47.740Z,18.50
2022-09-12T06:29:19.343Z,18.50
2022-09-12T06:31:48.046Z,18.50
2022-09-12T06:34:17.724Z,18.50
2022-09-12T06:36:47.592Z,18.50
2022-09-12T06:39:17.795Z,18.50
2022-09-12T06:41:47.356Z,18.50
2022-09-12T06:44:19.654Z,18.60
2022-09-12T06:46:48.765Z,18.60
2022-09-12T06:49:17.684Z,18.60
2022-09-12T06:51:46.607Z,18.60
2022-09-12T06:54:16.963Z,18.60
2022-09-12T06:56:46.261Z,18.60
2022-09-12T06:59:14.743Z,18.70
2022-09-12T07:01:44.613Z,18.60
2022-09-12T07:04:13.074Z,18.60
2022-09-12T07:06:44.600Z,18.60
2022-09-12T07:09:16.387Z,18.70
2022-09-12T07:11:45.542Z,18.60
2022-09-12T07:14:15.567Z,18.70
2022-09-12T07:16:45.551Z,18.60
2022-09-12T07:19:14.004Z,18.70
2022-09-12T07:21:42.465Z,18.70
2022-09-12T07:24:25.986Z,18.80
2022-09-12T07:26:54.138Z,18.70
2022-09-12T07:29:38.113Z,18.70
2022-09-12T07:32:08.617Z,18.80
2022-09-12T07:34:37.214Z,18.80
2022-09-12T07:37:05.969Z,18.80
2022-09-12T07:39:34.227Z,18.80
2022-09-12T07:42:02.581Z,19.10
2022-09-12T07:44:30.724Z,18.80
2022-09-12T07:46:59.203Z,18.90
2022-09-12T07:49:28.842Z,18.80
2022-09-12T07:51:57.738Z,18.80
2022-09-12T07:54:26.294Z,18.80
2022-09-12T07:56:54.387Z,18.80
2022-09-12T07:59:41.829Z,18.80
2022-09-12T08:02:17.062Z,18.80
2022-09-12T08:04:48.474Z,18.80
2022-09-12T08:07:18.272Z,18.80
2022-09-12T08:09:46.507Z,18.80
2022-09-12T08:12:14.928Z,18.80
2022-09-12T08:14:43.012Z,18.80
2022-09-12T08:17:11.101Z,18.80
2022-09-12T08:19:39.408Z,18.90
2022-09-12T08:22:09.373Z,18.90
2022-09-12T08:24:39.133Z,18.90
2022-09-12T08:27:07.312Z,19.00
2022-09-12T08:29:35.390Z,18.90
2022-09-12T08:32:04.124Z,18.90
2022-09-12T08:34:32.578Z,18.90
2022-09-12T08:37:00.754Z,18.90
2022-09-12T08:39:30.341Z,19.00
2022-09-12T08:42:03.142Z,19.00
2022-09-12T08:44:50.180Z,19.00
2022-09-12T08:47:26.731Z,19.00
2022-09-12T08:50:06.379Z,19.00
2022-09-12T08:52:40.192Z,19.10
2022-09-12T08:55:32.203Z,19.00
2022-09-12T08:58:02.859Z,19.10
2022-09-12T09:00:40.522Z,19.10
2022-09-12T09:03:44.408Z,19.10
2022-09-12T09:06:25.724Z,19.10
2022-09-12T09:09:02.990Z,19.10
2022-09-12T09:11:43.947Z,19.10
2022-09-12T09:14:51.402Z,19.10
2022-09-12T09:17:25.274Z,19.20
2022-09-12T09:20:05.333Z,19.20
2022-09-12T09:22:41.026Z,19.20
2022-09-12T09:25:19.705Z,19.20
2022-09-12T09:27:58.605Z,19.20
2022-09-12T09:30:26.962Z,19.20
2022-09-12T09:32:58.750Z,19.20
2022-09-12T09:35:40.217Z,19.20
2022-09-12T09:38:20.022Z,19.30
2022-09-12T09:41:02.023Z,19.30
2022-09-12T09:43:31.929Z,19.30
2022-09-12T09:46:00.763Z,19.30
2022-09-12T09:48:31.817Z,19.30
2022-09-12T09:51:01.951Z,19.30
2022-09-12T09:53:45.183Z,19.30
2022-09-12T09:56:23.149Z,19.30
2022-09-12T09:58:53.155Z,19.40
2022-09-12T10:01:21.764Z,19.40
2022-09-12T10:03:51.941Z,19.40
2022-09-12T10:06:27.327Z,19.40
2022-09-12T10:09:07.925Z,19.40
2022-09-12T10:11:37.216Z,19.50
2022-09-12T10:14:27.740Z,19.50
2022-09-12T10:16:57.600Z,19.50
2022-09-12T10:19:36.425Z,19.50
2022-09-12T10:22:07.061Z,19.50
2022-09-12T10:24:39.085Z,19.60
2022-09-12T10:27:14.374Z,19.60
2022-09-12T10:29:48.494Z,19.60
2022-09-12T10:32:30.524Z,19.60
2022-09-12T10:35:03.632Z,19.70
2022-09-12T10:37:34.759Z,19.60
2022-09-12T10:40:06.258Z,19.70
2022-09-12T10:42:48.103Z,19.70
2022-09-12T10:45:26.118Z,19.70
2022-09-12T10:47:55.549Z,19.80
2022-09-12T10:50:30.170Z,19.80
2022-09-12T10:53:20.489Z,19.80
2022-09-12T10:56:04.537Z,19.80
2022-09-12T10:59:05.014Z,19.80
2022-09-12T11:01:41.519Z,19.80
2022-09-12T11:04:29.782Z,19.80
2022-09-12T11:07:19.535Z,19.90
2022-09-12T11:09:57.649Z,19.90
2022-09-12T11:12:35.228Z,20.00
2022-09-12T11:15:17.651Z,20.00
2022-09-12T11:17:57.445Z,20.00
2022-09-12T11:20:46.146Z,20.00
2022-09-12T11:24:00.576Z,20.10
2022-09-12T11:26:45.603Z,20.10
2022-09-12T11:29:22.309Z,20.10
2022-09-12T11:32:13.443Z,20.20
2022-09-12T11:34:55.227Z,20.20
2022-09-12T11:37:39.681Z,20.30
2022-09-12T11:40:24.367Z,20.30
2022-09-12T11:42:56.566Z,20.30
2022-09-12T11:45:30.476Z,20.30
2022-09-12T11:48:05.163Z,20.40
2022-09-12T11:50:35.264Z,20.40
2022-09-12T11:53:13.572Z,20.40
2022-09-12T11:55:54.483Z,20.40
2022-09-12T11:58:27.388Z,20.50
2022-09-12T12:00:59.836Z,20.50
2022-09-12T12:03:34.715Z,20.60
2022-09-12T12:06:08.162Z,20.60
2022-09-12T12:08:41.658Z,20.70
2022-09-12T12:11:12.125Z,20.70
2022-09-12T12:13:47.345Z,20.80
2022-09-12T12:16:22.568Z,20.70
2022-09-12T12:18:56.897Z,20.80
2022-09-12T12:21:41.546Z,20.80
2022-09-12T12:24:21.210Z,20.90
2022-09-12T12:26:59.346Z,20.90
2022-09-12T12:29:43.658Z,21.00
2022-09-12T12:32:24.253Z,21.00
2022-09-12T12:35:23.952Z,21.00
2022-09-12T12:38:00.315Z,21.00
2022-09-12T12:40:31.934Z,21.10
2022-09-12T12:43:08.058Z,21.10
2022-09-12T12:46:01.841Z,21.20
2022-09-12T12:48:47.834Z,21.20
2022-09-12T12:51:39.974Z,21.20
2022-09-12T12:54:31.772Z,21.30
2022-09-12T12:57:27.211Z,21.30
2022-09-12T12:59:59.176Z,21.40
2022-09-12T13:02:32.194Z,21.40
2022-09-12T13:05:03.663Z,21.40
2022-09-12T13:07:36.291Z,21.50
2022-09-12T13:10:09.119Z,21.50
2022-09-12T13:12:45.611Z,21.50
2022-09-12T13:15:51.947Z,21.60
2022-09-12T13:18:29.674Z,21.60
2022-09-12T13:21:05.311Z,21.70
2022-09-12T13:23:35.320Z,21.70
2022-09-12T13:26:13.322Z,21.80
2022-09-12T13:28:42.555Z,21.80
2022-09-12T13:31:24.446Z,21.80
2022-09-12T13:33:56.991Z,21.80
2022-09-12T13:36:48.193Z,21.90
2022-09-12T13:39:21.632Z,22.00
2022-09-12T13:42:10.291Z,22.00
2022-09-12T13:44:45.781Z,22.00
2022-09-12T13:47:20.347Z,22.10
2022-09-12T13:49:50.982Z,22.10
2022-09-12T13:52:23.127Z,22.10
2022-09-12T13:54:54.669Z,22.20
2022-09-12T13:57:34.653Z,22.20
2022-09-12T14:00:07.546Z,22.30
2022-09-12T14:02:37.726Z,22.30
2022-09-12T14:05:19.798Z,22.30
2022-09-12T14:07:56.234Z,22.40
2022-09-12T14:10:33.087Z,22.40
2022-09-12T14:13:06.051Z,22.40
2022-09-12T14:15:37.867Z,22.50
2022-09-12T14:18:08.685Z,22.50
2022-09-12T14:20:39.489Z,22.50
2022-09-12T14:23:17.635Z,22.50
2022-09-12T14:25:47.972Z,22.50
2022-09-12T14:28:23.341Z,22.60
2022-09-12T14:31:21.429Z,22.60
2022-09-12T14:33:51.908Z,22.60
2022-09-12T14:36:26.455Z,22.60
2022-09-12T14:38:58.454Z,22.60
2022-09-12T14:41:31.639Z,22.70
2022-09-12T14:44:05.249Z,22.80
2022-09-12T14:46:36.703Z,22.80
2022-09-12T14:49:11.159Z,22.80
2022-09-12T14:51:42.254Z,22.90
2022-09-12T14:54:42.651Z,23.00
2022-09-12T14:57:34.542Z,23.00
2022-09-12T15:00:24.192Z,23.00
2022-09-12T15:02:54.627Z,23.00
2022-09-12T15:05:28.495Z,23.10
2022-09-12T15:08:00.707Z,23.10
2022-09-12T15:10:32.627Z,23.10
2022-09-12T15:13:19.831Z,23.10
2022-09-12T15:15:53.495Z,23.10
2022-09-12T15:18:24.082Z,23.20
2022-09-12T15:20:55.644Z,23.20
2022-09-12T15:23:38.197Z,23.20
2022-09-12T15:26:08.730Z,23.30
2022-09-12T15:28:37.068Z,23.30
2022-09-12T15:31:12.342Z,23.30
2022-09-12T15:33:40.579Z,23.30
2022-09-12T15:36:16.455Z,23.30
2022-09-12T15:38:45.414Z,23.30
2022-09-12T15:41:16.734Z,23.30
2022-09-12T15:43:45.478Z,23.30
2022-09-12T15:46:17.039Z,23.30
2022-09-12T15:48:45.313Z,23.30
2022-09-12T15:51:15.661Z,23.30
2022-09-12T15:53:44.688Z,23.30
2022-09-12T15:56:13.132Z,23.30
2022-09-12T15:58:57.123Z,23.30
2022-09-12T16:01:28.287Z,23.30
2022-09-12T16:03:56.841Z,23.30
2022-09-12T16:06:25.780Z,23.40
2022-09-12T16:08:53.916Z,23.40
2022-09-12T16:11:24.138Z,23.50
2022-09-12T16:13:53.808Z,23.40
2022-09-12T16:16:22.261Z,23.50
2022-09-12T16:18:51.850Z,23.50
2022-09-12T16:21:21.274Z,23.50
2022-09-12T16:23:49.818Z,23.50
2022-09-12T16:26:18.205Z,23.60
2022-09-12T16:28:46.532Z,23.60
2022-09-12T16:31:15.324Z,23.60
2022-09-12T16:33:43.461Z,23.60
2022-09-12T16:36:14.860Z,23.70
2022-09-12T16:38:43.640Z,23.70
2022-09-12T16:41:12.299Z,23.70
2022-09-12T16:43:40.855Z,23.80
2022-09-12T16:46:12.079Z,23.80
2022-09-12T16:48:48.068Z,23.80
2022-09-12T16:51:22.813Z,23.80
2022-09-12T16:53:51.468Z,23.80
2022-09-12T16:56:19.826Z,23.90
2022-09-12T16:58:48.089Z,24.00
2022-09-12T17:01:18.243Z,24.00
2022-09-12T17:03:47.091Z,24.00
2022-09-12T17:06:18.108Z,23.90
2022-09-12T17:08:49.754Z,23.90
2022-09-12T17:11:19.684Z,23.90
2022-09-12T17:14:06.422Z,23.80
2022-09-12T17:16:37.020Z,23.80
2022-09-12T17:19:05.728Z,23.80
2022-09-12T17:21:34.114Z,23.70
2022-09-12T17:24:04.061Z,23.60
2022-09-12T17:26:32.579Z,23.60
2022-09-12T17:29:01.392Z,23.60
2022-09-12T17:31:29.615Z,23.50
2022-09-12T17:33:59.575Z,23.50
2022-09-12T17:36:28.572Z,23.40
2022-09-12T17:38:56.912Z,23.30
2022-09-12T17:41:29.400Z,23.30
2022-09-12T17:43:58.898Z,23.30
2022-09-12T17:46:34.996Z,23.20
2022-09-12T17:49:05.052Z,23.20
2022-09-12T17:51:34.526Z,23.10
2022-09-12T17:54:04.651Z,23.10
2022-09-12T17:56:37.017Z,23.10
2022-09-12T17:59:07.068Z,23.00
2022-09-12T18:01:53.235Z,23.00
2022-09-12T18:04:21.622Z,23.00
2022-09-12T18:06:50.085Z,22.90
2022-09-12T18:09:20.042Z,22.90
2022-09-12T18:11:50.039Z,22.80
2022-09-12T18:14:18.712Z,22.80
2022-09-12T18:16:47.406Z,22.80
2022-09-12T18:19:16.389Z,22.70
2022-09-12T18:21:44.577Z,22.70
2022-09-12T18:24:13.087Z,22.70
2022-09-12T18:26:42.733Z,22.60
2022-09-12T18:29:13.453Z,22.60
2022-09-12T18:31:41.614Z,22.60
2022-09-12T18:34:12.700Z,22.50
2022-09-12T18:36:41.687Z,22.50
2022-09-12T18:39:10.390Z,22.50
2022-09-12T18:41:38.956Z,22.40
2022-09-12T18:44:08.223Z,22.40
2022-09-12T18:46:37.745Z,22.40
2022-09-12T18:49:06.086Z,22.40
2022-09-12T18:51:36.197Z,22.40
2022-09-12T18:54:06.827Z,22.30
2022-09-12T18:56:37.675Z,22.30
2022-09-12T18:59:07.345Z,22.30
2022-09-12T19:01:39.132Z,22.30
2022-09-12T19:04:09.749Z,22.20
2022-09-12T19:06:39.959Z,22.20
2022-09-12T19:09:09.095Z,22.20
2022-09-12T19:11:39.541Z,22.20
2022-09-12T19:14:08.067Z,22.20
2022-09-12T19:16:36.360Z,22.20
2022-09-12T19:19:06.121Z,22.20
2022-09-12T19:21:35.262Z,22.20
2022-09-12T19:24:06.729Z,22.10
2022-09-12T19:26:35.759Z,22.10
2022-09-12T19:29:04.839Z,22.10
2022-09-12T19:31:33.727Z,22.10
2022-09-12T19:34:05.810Z,22.10
2022-09-12T19:36:44.810Z,22.10
2022-09-12T19:39:13.878Z,22.10
2022-09-12T19:41:42.514Z,22.10
2022-09-12T19:44:11.463Z,22.00
2022-09-12T19:46:40.418Z,22.00
2022-09-12T19:49:11.692Z,22.00
2022-09-12T19:51:39.870Z,22.00
2022-09-12T19:54:08.113Z,22.00
2022-09-12T19:56:36.194Z,22.00
2022-09-12T19:59:04.303Z,22.00
2022-09-12T20:01:33.050Z,22.00
2022-09-12T20:04:01.504Z,22.00
2022-09-12T20:06:31.005Z,22.00
2022-09-12T20:08:59.168Z,22.00
2022-09-12T20:11:27.327Z,22.00
2022-09-12T20:13:55.485Z,22.00
2022-09-12T20:16:26.433Z,21.90
2022-09-12T20:18:55.856Z,21.90
2022-09-12T20:21:31.232Z,21.90
2022-09-12T20:24:06.647Z,21.90
2022-09-12T20:26:35.065Z,21.90
2022-09-12T20:29:03.670Z,21.90
2022-09-12T20:31:32.307Z,21.90
2022-09-12T20:34:00.740Z,21.90
2022-09-12T20:36:29.263Z,21.90
2022-09-12T20:39:01.218Z,21.90
2022-09-12T20:41:33.654Z,21.90
2022-09-12T20:44:01.743Z,21.60
2022-09-12T20:46:30.386Z,21.90
2022-09-12T20:48:59.728Z,21.90
2022-09-12T20:51:29.679Z,21.90
2022-09-12T20:53:58.887Z,21.90
2022-09-12T20:56:28.464Z,21.80
2022-09-12T20:58:58.672Z,21.90
2022-09-12T21:01:28.267Z,21.80
2022-09-12T21:03:56.560Z,21.90
2022-09-12T21:06:24.925Z,21.80
2022-09-12T21:08:53.178Z,21.80
2022-09-12T21:11:21.649Z,21.80
2022-09-12T21:13:50.280Z,21.80
2022-09-12T21:16:21.846Z,21.80
2022-09-12T21:18:54.769Z,21.80
2022-09-12T21:21:23.057Z,21.80
2022-09-12T21:23:51.722Z,21.40
2022-09-12T21:26:19.886Z,21.90
2022-09-12T21:28:48.928Z,21.80
2022-09-12T21:31:17.199Z,21.80
2022-09-12T21:33:46.735Z,21.80
2022-09-12T21:36:14.849Z,21.80
2022-09-12T21:38:42.881Z,21.80
2022-09-12T21:41:12.877Z,21.80
2022-09-12T21:43:41.283Z,21.80
2022-09-12T21:46:10.019Z,21.80
2022-09-12T21:48:38.657Z,21.70
2022-09-12T21:51:08.421Z,21.80
2022-09-12T21:53:37.392Z,21.80
2022-09-12T21:56:08.042Z,21.70
2022-09-12T21:58:36.761Z,21.70
2022-09-12T22:01:05.977Z,21.80
2022-09-12T22:03:34.209Z,21.70
2022-09-12T22:06:03.901Z,21.70
2022-09-12T22:08:35.212Z,21.70
2022-09-12T22:11:05.620Z,21.70
2022-09-12T22:13:33.856Z,21.70
2022-09-12T22:16:03.179Z,21.70
2022-09-12T22:18:34.588Z,21.70
2022-09-12T22:21:05.378Z,21.70
2022-09-12T22:23:52.582Z,21.70
2022-09-12T22:26:20.739Z,21.60
2022-09-12T22:28:50.375Z,21.60
2022-09-12T22:31:19.275Z,21.60
2022-09-12T22:33:48.049Z,21.60
2022-09-12T22:36:16.108Z,21.60
2022-09-12T22:38:45.607Z,21.60
2022-09-12T22:41:14.167Z,21.60
2022-09-12T22:43:42.314Z,21.60
2022-09-12T22:46:12.473Z,21.60
2022-09-12T22:48:41.178Z,21.60
2022-09-12T22:51:09.363Z,21.60
2022-09-12T22:53:38.029Z,21.60
2022-09-12T22:56:08.230Z,21.60
2022-09-12T22:58:37.731Z,21.50
2022-09-12T23:01:06.781Z,21.60
2022-09-12T23:03:36.263Z,21.50
2022-09-12T23:06:05.562Z,21.50
2022-09-12T23:08:35.729Z,21.50
2022-09-12T23:11:05.482Z,21.50
2022-09-12T23:13:34.882Z,21.50
2022-09-12T23:16:05.428Z,21.50
2022-09-12T23:18:35.910Z,21.50
2022-09-12T23:21:06.577Z,21.50
2022-09-12T23:23:35.388Z,21.50
2022-09-12T23:26:09.326Z,21.50
2022-09-12T23:28:39.101Z,21.50
2022-09-12T23:31:09.503Z,21.40
2022-09-12T23:33:40.289Z,21.40
2022-09-12T23:36:12.669Z,21.50
2022-09-12T23:38:41.595Z,21.40
2022-09-12T23:41:10.540Z,21.40
2022-09-12T23:43:40.147Z,21.40
2022-09-12T23:46:08.438Z,21.40
2022-09-12T23:48:37.193Z,21.40
2022-09-12T23:51:05.721Z,21.40
2022-09-12T23:53:35.646Z,21.30
2022-09-12T23:56:04.868Z,21.30
2022-09-12T23:58:33.129Z,21.30
